Time;durP1;ratioP1;P1;durP2;ratioP2;P2;SDS_P1;SDS_P2;PMS_P1;PMS_P2;Temp;Humidity;BMP_temperature;BMP_pressure;BME280_temperature;BME280_humidity;BME280_pressure;Samples;Min_cycle;Max_cycle;Signal;HPM_P1;HPM_P2
2022/01/21 00:01:40;;;;;;;13.38;4.38;;;;;;;2.76;93.40;103313.53;4862181;29;20038;-52
2022/01/21 00:04:09;;;;;;;17.98;4.60;;;;;;;2.74;92.53;103316.41;4862422;29;20129;-54
2022/01/21 00:06:38;;;;;;;12.82;3.97;;;;;;;2.72;93.27;103306.81;4861443;29;20050;-49
2022/01/21 00:09:06;;;;;;;15.40;4.65;;;;;;;2.73;93.07;103303.09;4862647;29;20056;-49
2022/01/21 00:11:36;;;;;;;13.60;4.50;;;;;;;2.73;92.72;103305.78;4862279;29;20053;-53
2022/01/21 00:14:04;;;;;;;14.50;4.60;;;;;;;2.71;92.86;103307.78;4862263;29;20045;-54
2022/01/21 00:16:31;;;;;;;14.63;4.95;;;;;;;2.69;92.90;103309.78;4861290;29;20045;-54
2022/01/21 00:19:08;;;;;;;13.85;4.38;;;;;;;2.68;92.89;103306.25;4861818;29;20053;-49
2022/01/21 00:30:16;;;;;;;15.70;4.22;;;;;;;2.68;92.60;103302.72;4845008;29;20461;-52
2022/01/21 00:32:46;;;;;;;14.15;4.63;;;;;;;2.67;92.23;103303.69;4871392;29;20067;-51
2022/01/21 00:35:15;;;;;;;12.55;4.28;;;;;;;2.66;92.58;103308.25;4863286;29;20048;-48
2022/01/21 00:37:42;;;;;;;17.38;4.80;;;;;;;2.63;92.40;103297.78;4863485;29;20403;-47
2022/01/21 00:40:14;;;;;;;15.00;4.47;;;;;;;2.61;91.93;103298.94;4880288;29;20463;-49
2022/01/21 00:45:13;;;;;;;12.88;4.75;;;;;;;2.56;92.32;103312.88;4880003;29;20053;-48
2022/01/21 00:47:42;;;;;;;16.15;4.68;;;;;;;2.53;92.14;103308.63;4879024;29;20496;-52
2022/01/21 00:50:10;;;;;;;15.50;4.82;;;;;;;2.51;91.92;103297.19;4879729;29;20045;-53
2022/01/21 00:52:37;;;;;;;17.20;4.65;;;;;;;2.49;91.98;103301.84;4879949;29;20518;-50
2022/01/21 00:55:07;;;;;;;14.32;4.55;;;;;;;2.50;92.41;103303.56;4879017;29;20044;-53
2022/01/21 00:57:34;;;;;;;13.90;4.90;;;;;;;2.50;92.10;103303.56;4860206;29;20053;-49
2022/01/21 01:00:04;;;;;;;17.95;5.20;;;;;;;2.49;92.05;103307.25;4862932;29;20041;-52
2022/01/21 01:02:31;;;;;;;15.85;5.20;;;;;;;2.47;91.51;103313.78;4878450;29;20118;-51
2022/01/21 01:04:59;;;;;;;17.08;5.07;;;;;;;2.44;91.53;103311.41;4879064;29;20469;-52
2022/01/21 01:07:28;;;;;;;18.40;4.85;;;;;;;2.43;92.14;103312.38;4879349;29;20508;-52
2022/01/21 01:09:58;;;;;;;15.52;4.95;;;;;;;2.41;92.24;103303.63;4862976;29;20048;-50
2022/01/21 01:20:45;;;;;;;17.20;4.82;;;;;;;2.39;91.97;103293.03;4878687;29;20128;-51
2022/01/21 01:29:05;;;;;;;11.98;4.40;;;;;;;2.39;92.66;103287.63;4775171;29;20070;-50
2022/01/21 01:31:32;;;;;;;14.57;4.85;;;;;;;2.38;92.80;103294.00;4803879;29;20545;-50
2022/01/21 01:34:01;;;;;;;15.88;5.05;;;;;;;2.41;92.61;103282.97;4804149;29;20069;-53
2022/01/21 01:36:29;;;;;;;12.93;4.70;;;;;;;2.44;92.32;103281.81;4788624;29;20138;-52
2022/01/21 01:41:35;;;;;;;15.32;4.70;;;;;;;2.46;92.69;103279.81;4804156;29;20449;-47
2022/01/21 01:49:38;;;;;;;13.15;4.18;;;;;;;2.44;92.27;103282.63;4788447;29;20066;-49
2022/01/21 01:52:08;;;;;;;12.18;4.38;;;;;;;2.44;92.30;103292.56;4803932;29;20050;-49
2022/01/21 01:54:42;;;;;;;15.98;4.85;;;;;;;2.41;92.63;103288.34;4804192;29;20046;-45
2022/01/21 01:57:10;;;;;;;13.40;4.22;;;;;;;2.40;92.42;103283.94;4803462;29;20621;-52
2022/01/21 01:59:38;;;;;;;16.27;4.95;;;;;;;2.41;92.50;103277.56;4788392;29;20092;-48
2022/01/21 02:02:12;;;;;;;14.32;4.95;;;;;;;2.38;92.50;103294.00;4824759;29;20053;-50
2022/01/21 02:04:42;;;;;;;15.75;4.40;;;;;;;2.35;92.24;103294.31;4879370;29;20497;-48
2022/01/21 02:07:10;;;;;;;16.15;4.82;;;;;;;2.35;92.56;103300.53;4879133;29;20057;-53
2022/01/21 02:09:38;;;;;;;15.98;4.25;;;;;;;2.35;92.58;103299.69;4862652;29;20124;-53
2022/01/21 02:12:08;;;;;;;14.35;4.47;;;;;;;2.34;92.95;103292.63;4879118;29;20128;-51
2022/01/21 02:14:38;;;;;;;15.75;4.65;;;;;;;2.35;92.79;103299.69;4879328;29;20057;-50
2022/01/21 02:22:31;;;;;;;15.52;4.45;;;;;;;2.35;92.83;103292.47;4882676;29;20132;-47
2022/01/21 02:25:11;;;;;;;15.80;3.97;;;;;;;2.35;92.49;103291.63;4881678;29;20049;-53
2022/01/21 02:27:38;;;;;;;16.52;4.10;;;;;;;2.36;92.68;103293.34;4872872;29;20073;-52
2022/01/21 02:30:07;;;;;;;14.85;4.13;;;;;;;2.36;92.44;103290.66;4882059;29;20052;-48
2022/01/21 02:32:35;;;;;;;14.75;3.67;;;;;;;2.38;92.38;103298.53;4881041;29;20053;-50
2022/01/21 02:35:03;;;;;;;12.43;4.35;;;;;;;2.39;92.61;103294.88;4880930;29;20049;-54
2022/01/21 02:37:31;;;;;;;11.13;3.97;;;;;;;2.39;92.25;103293.03;4865456;29;20051;-52
2022/01/21 02:39:58;;;;;;;12.45;4.28;;;;;;;2.38;92.00;103294.00;4865729;29;20072;-54
2022/01/21 02:42:26;;;;;;;11.95;3.75;;;;;;;2.39;91.88;103297.56;4850032;29;20431;-51
2022/01/21 02:44:54;;;;;;;16.38;4.18;;;;;;;2.38;92.51;103295.84;4882122;29;20045;-51
2022/01/21 02:47:21;;;;;;;11.85;3.70;;;;;;;2.37;92.23;103283.41;4880897;29;20141;-51
2022/01/21 02:49:54;;;;;;;14.82;4.20;;;;;;;2.35;92.12;103287.09;4865071;29;20056;-49
2022/01/21 02:52:26;;;;;;;15.48;4.65;;;;;;;2.34;91.86;103284.56;4865139;29;20049;-51
2022/01/21 02:54:53;;;;;;;14.90;3.65;;;;;;;2.32;92.56;103294.63;4882178;29;20045;-50
2022/01/21 02:57:21;;;;;;;13.70;3.72;;;;;;;2.30;92.29;103291.25;4865598;29;20055;-52
2022/01/21 02:59:50;;;;;;;11.63;3.63;;;;;;;2.28;92.36;103295.91;4881511;29;20053;-50
2022/01/21 03:02:19;;;;;;;13.25;4.25;;;;;;;2.27;92.34;103300.47;4880389;29;20806;-53
2022/01/21 03:04:58;;;;;;;11.70;3.90;;;;;;;2.27;92.55;103296.94;4864791;29;20519;-50
2022/01/21 03:07:26;;;;;;;13.63;3.90;;;;;;;2.27;92.39;103302.31;4881847;29;20048;-54
2022/01/21 03:09:54;;;;;;;13.00;3.88;;;;;;;2.28;92.89;103301.28;4880355;29;20069;-54
2022/01/21 03:12:21;;;;;;;14.55;3.97;;;;;;;2.29;92.68;103305.69;4881233;29;20045;-51
2022/01/21 03:14:50;;;;;;;12.05;3.80;;;;;;;2.28;92.67;103294.06;4881318;29;20560;-53
2022/01/21 03:17:18;;;;;;;11.02;3.35;;;;;;;2.28;92.74;103291.38;4881729;29;20041;-51
2022/01/21 03:19:46;;;;;;;11.98;3.97;;;;;;;2.31;92.90;103306.41;4864950;29;20057;-50
2022/01/21 03:22:13;;;;;;;7.70;2.95;;;;;;;2.31;92.80;103301.03;4881121;29;20060;-56
2022/01/21 03:24:41;;;;;;;11.68;3.63;;;;;;;2.32;92.82;103305.38;4880306;29;20072;-49
2022/01/21 03:27:08;;;;;;;12.93;3.65;;;;;;;2.34;92.55;103314.16;4881105;29;20412;-51
2022/01/21 03:29:36;;;;;;;14.50;3.70;;;;;;;2.34;92.89;103311.47;4864070;29;20572;-50
2022/01/21 03:32:05;;;;;;;11.05;3.35;;;;;;;2.33;92.59;103305.25;4864531;29;20101;-47
2022/01/21 03:34:36;;;;;;;12.32;3.42;;;;;;;2.32;93.10;103310.78;4865010;29;20069;-48
2022/01/21 03:37:04;;;;;;;11.65;3.72;;;;;;;2.32;93.10;103305.38;4879978;29;20404;-52
2022/01/21 03:39:32;;;;;;;12.02;3.67;;;;;;;2.32;92.89;103308.06;4879809;29;20113;-50
2022/01/21 03:42:01;;;;;;;11.30;3.80;;;;;;;2.29;93.19;103309.22;4879948;29;20055;-52
2022/01/21 03:44:28;;;;;;;10.35;3.70;;;;;;;2.30;93.12;103307.38;4864362;29;20510;-51
2022/01/21 03:46:56;;;;;;;9.73;3.42;;;;;;;2.30;93.32;103312.75;4849209;29;20060;-49
2022/01/21 03:49:24;;;;;;;12.60;3.40;;;;;;;2.31;93.73;103317.16;4864462;29;20053;-48
2022/01/21 03:51:51;;;;;;;14.57;3.83;;;;;;;2.31;93.29;103318.00;4864335;29;20510;-49
2022/01/21 03:54:19;;;;;;;12.07;3.60;;;;;;;2.31;93.23;103325.22;4864305;29;20051;-49
2022/01/21 03:56:47;;;;;;;11.48;3.70;;;;;;;2.32;93.55;103321.53;4864057;29;20510;-49
2022/01/21 03:59:15;;;;;;;12.10;3.38;;;;;;;2.31;93.63;103320.69;4880572;29;20669;-48
2022/01/21 04:01:42;;;;;;;13.93;3.40;;;;;;;2.32;93.84;103324.22;4864268;29;20052;-50
2022/01/21 04:04:11;;;;;;;13.05;3.80;;;;;;;2.31;93.48;103320.69;4863843;29;20128;-49
2022/01/21 04:06:39;;;;;;;12.82;3.72;;;;;;;2.32;93.92;103316.16;4879367;29;20487;-49
2022/01/21 04:09:08;;;;;;;10.48;3.38;;;;;;;2.30;93.46;103316.28;4879922;29;20089;-50
2022/01/21 04:11:36;;;;;;;13.13;3.72;;;;;;;2.31;94.05;103312.63;4878845;29;20057;-50
2022/01/21 04:14:03;;;;;;;14.20;3.65;;;;;;;2.31;94.03;103309.09;4863843;29;20049;-49
2022/01/21 04:16:31;;;;;;;12.75;3.67;;;;;;;2.31;93.82;103306.41;4864076;29;20507;-52
2022/01/21 04:19:00;;;;;;;12.30;3.70;;;;;;;2.31;93.94;103299.16;4864127;29;20052;-49
2022/01/21 04:21:29;;;;;;;15.45;3.53;;;;;;;2.30;94.39;103297.47;4879169;29;20065;-49
2022/01/21 04:23:59;;;;;;;13.93;3.65;;;;;;;2.29;94.67;103305.69;4863458;29;20052;-50
2022/01/21 04:26:32;;;;;;;14.23;3.92;;;;;;;2.28;94.62;103304.00;4863866;29;20048;-49
2022/01/21 04:29:08;;;;;;;13.82;3.58;;;;;;;2.27;94.57;103310.38;4863797;29;20052;-49
2022/01/21 04:31:58;;;;;;;11.35;3.55;;;;;;;2.26;94.83;103311.34;4863342;29;20130;-46
2022/01/21 04:34:32;;;;;;;14.13;3.50;;;;;;;2.25;94.62;103312.38;4863616;29;20049;-51
2022/01/21 04:37:01;;;;;;;10.50;3.35;;;;;;;2.24;94.96;103303.47;4845207;29;20501;-50
2022/01/21 04:39:48;;;;;;;11.23;3.58;;;;;;;2.24;94.89;103297.25;4867929;29;20135;-50
2022/01/21 04:47:39;;;;;;;11.98;3.63;;;;;;;2.22;95.51;103310.00;4863556;29;20049;-51
2022/01/21 04:50:13;;;;;;;11.80;3.15;;;;;;;2.19;95.67;103311.13;4863390;29;20081;-52
2022/01/21 04:52:46;;;;;;;10.85;3.35;;;;;;;2.18;96.19;103303.22;4877248;29;20057;-49
2022/01/21 04:55:43;;;;;;;11.05;3.20;;;;;;;2.18;96.19;103297.84;4840553;29;20185;-50
2022/01/21 04:58:11;;;;;;;11.32;3.47;;;;;;;2.19;96.02;103294.13;4839281;29;20062;-51
2022/01/21 05:00:43;;;;;;;11.05;3.00;;;;;;;2.20;96.00;103293.16;4825498;29;20050;-50
2022/01/21 05:03:12;;;;;;;9.70;3.10;;;;;;;2.17;96.40;103285.41;4839164;29;20485;-50
2022/01/21 05:05:40;;;;;;;9.25;2.97;;;;;;;2.17;96.15;103291.63;4840603;29;20135;-52
2022/01/21 05:08:19;;;;;;;13.80;3.47;;;;;;;2.18;96.58;103292.44;4839133;29;20042;-51
2022/01/21 05:10:47;;;;;;;8.80;2.95;;;;;;;2.19;96.31;103294.13;4824068;29;20131;-54
2022/01/21 05:13:18;;;;;;;11.57;3.65;;;;;;;2.20;96.48;103293.16;4825629;29;20046;-50
2022/01/21 05:16:05;;;;;;;10.48;3.08;;;;;;;2.19;96.42;103295.00;4825557;29;20137;-52
2022/01/21 05:18:33;;;;;;;10.90;3.20;;;;;;;2.18;96.59;103295.13;4823405;29;20062;-51
2022/01/21 05:21:19;;;;;;;;;;;;;;;2.19;96.41;103294.13;4839333;29;20058;-50
2022/01/21 05:24:19;;;;;;;12.27;3.42;;;;;;;2.20;97.01;103295.84;4786083;30;19925;-50
2022/01/21 05:26:53;;;;;;;14.07;3.35;;;;;;;2.21;96.49;103305.59;4786150;30;20094;-51
2022/01/21 05:29:26;;;;;;;9.00;3.10;;;;;;;2.19;97.04;103295.00;4769183;29;20055;-50
2022/01/21 05:31:59;;;;;;;8.15;2.90;;;;;;;2.21;97.13;103294.84;4778233;29;20051;-51
2022/01/21 05:34:34;;;;;;;11.15;3.35;;;;;;;2.21;96.83;103302.91;4804189;29;20085;-51
2022/01/21 05:37:24;;;;;;;11.68;3.45;;;;;;;2.22;97.24;103296.53;4803862;29;20051;-50
2022/01/21 05:40:14;;;;;;;9.10;3.13;;;;;;;2.22;97.09;103299.22;4803171;29;20133;-50
2022/01/21 05:43:14;;;;;;;10.27;3.20;;;;;;;2.24;96.90;103302.63;4784415;30;20652;-50
2022/01/21 05:49:11;;;;;;;12.43;3.45;;;;;;;2.22;97.39;103293.84;4766566;30;20066;-50
2022/01/21 05:52:04;;;;;;;7.93;2.70;;;;;;;2.22;97.40;103307.31;4771061;30;20052;-52
2022/01/21 05:54:54;;;;;;;11.10;3.20;;;;;;;2.23;97.37;103312.50;4769983;30;20064;-52
2022/01/21 05:57:52;;;;;;;12.52;3.70;;;;;;;2.24;97.43;103314.22;4756992;30;20058;-50
2022/01/21 06:00:35;;;;;;;8.43;3.22;;;;;;;2.26;97.70;103320.28;4769782;29;20552;-51
2022/01/21 06:03:04;;;;;;;14.18;3.60;;;;;;;2.26;97.61;103317.59;4807487;29;20058;-52
2022/01/21 06:05:33;;;;;;;11.75;3.30;;;;;;;2.28;97.28;103314.75;4805644;29;20059;-54
2022/01/21 06:08:04;;;;;;;10.77;3.65;;;;;;;2.29;97.64;103319.16;4807354;29;20069;-53
2022/01/21 06:10:32;;;;;;;10.40;3.38;;;;;;;2.29;97.51;103313.78;4805730;29;20051;-51
2022/01/21 06:13:00;;;;;;;11.18;3.38;;;;;;;2.28;97.04;103320.13;4807092;29;20051;-52
2022/01/21 06:15:27;;;;;;;7.85;3.03;;;;;;;2.28;97.47;103330.88;4805455;29;20055;-47
2022/01/21 06:17:55;;;;;;;10.50;3.00;;;;;;;2.26;97.10;103323.00;4805319;29;20502;-50
2022/01/21 06:20:22;;;;;;;9.68;2.88;;;;;;;2.26;97.06;103322.13;4789155;30;20051;-49
2022/01/21 06:22:50;;;;;;;8.20;2.92;;;;;;;2.26;97.48;103330.19;4788594;30;20051;-52
2022/01/21 06:25:18;;;;;;;10.93;3.42;;;;;;;2.26;97.34;103330.19;4795074;29;20055;-50
2022/01/21 06:27:45;;;;;;;10.40;2.80;;;;;;;2.26;97.72;103340.94;4843122;29;20573;-48
2022/01/21 06:30:14;;;;;;;10.43;3.30;;;;;;;2.24;97.28;103338.44;4842436;29;20066;-49
2022/01/21 06:32:42;;;;;;;8.55;2.90;;;;;;;2.24;97.61;103342.97;4874347;29;20515;-48
2022/01/21 06:35:10;;;;;;;10.40;3.30;;;;;;;2.23;97.63;103344.78;4881879;29;20068;-48
2022/01/21 06:37:39;;;;;;;12.80;3.15;;;;;;;2.24;97.29;103348.34;4882338;29;20389;-50
2022/01/21 06:40:08;;;;;;;10.48;3.10;;;;;;;2.20;97.73;103365.78;4881822;29;20041;-48
2022/01/21 06:42:36;;;;;;;8.48;2.90;;;;;;;2.18;98.12;103367.75;4882108;29;20056;-46
2022/01/21 06:45:04;;;;;;;10.32;3.08;;;;;;;2.18;98.52;103367.75;4881757;29;20052;-50
2022/01/21 06:47:32;;;;;;;11.95;3.20;;;;;;;2.18;98.64;103370.44;4882015;29;20037;-51
2022/01/21 06:50:00;;;;;;;12.18;3.10;;;;;;;2.19;98.84;103358.69;4881703;29;20041;-47
2022/01/21 06:52:29;;;;;;;9.52;3.00;;;;;;;2.20;98.61;103363.09;4881797;29;20587;-46
2022/01/21 06:54:57;;;;;;;12.70;3.80;;;;;;;2.19;98.70;103364.94;4881937;29;20052;-49
2022/01/21 06:57:26;;;;;;;11.82;3.30;;;;;;;2.21;98.79;103367.44;4882104;29;20119;-49
2022/01/21 06:59:53;;;;;;;14.52;3.50;;;;;;;2.20;99.30;103360.41;4881449;29;20053;-50
2022/01/21 07:02:21;;;;;;;10.20;3.17;;;;;;;2.22;99.29;103371.84;4881099;29;20519;-48
2022/01/21 07:04:50;;;;;;;11.38;3.35;;;;;;;2.23;99.06;103379.75;4881651;29;20453;-50
2022/01/21 07:07:21;;;;;;;9.93;3.30;;;;;;;2.25;99.22;103383.16;4881577;29;20123;-50
2022/01/21 07:09:48;;;;;;;11.13;3.38;;;;;;;2.27;98.98;103377.63;4881525;29;20037;-45
2022/01/21 07:12:16;;;;;;;8.48;2.85;;;;;;;2.30;98.85;103382.69;4881680;29;20041;-44
2022/01/21 07:14:46;;;;;;;11.07;3.33;;;;;;;2.32;99.08;103380.72;4881489;29;20412;-44
2022/01/21 07:17:14;;;;;;;10.43;3.33;;;;;;;2.35;98.95;103396.53;4880926;29;20041;-46
2022/01/21 07:19:41;;;;;;;9.97;3.33;;;;;;;2.36;98.89;103392.88;4207491;29;10020703;-44
2022/01/21 07:22:09;;;;;;;10.77;3.42;;;;;;;2.34;99.34;103400.25;4878422;29;20289;-46
2022/01/21 07:24:36;;;;;;;10.15;3.53;;;;;;;2.35;99.15;103397.38;4869540;29;20049;-48
2022/01/21 07:27:04;;;;;;;11.07;3.38;;;;;;;2.33;98.74;103409.28;4873896;29;20061;-46
2022/01/21 07:29:32;;;;;;;13.38;3.65;;;;;;;2.30;98.86;103410.44;4877520;29;20049;-52
2022/01/21 07:32:00;;;;;;;10.50;3.50;;;;;;;2.27;99.22;103404.53;4877951;29;20048;-49
2022/01/21 07:34:27;;;;;;;14.90;4.20;;;;;;;2.25;99.70;103412.72;4877936;29;20120;-46
2022/01/21 07:36:56;;;;;;;13.13;4.03;;;;;;;2.23;99.69;103416.56;4877523;29;20061;-46
2022/01/21 07:39:23;;;;;;;13.02;4.18;;;;;;;2.23;99.74;103414.72;4877785;29;20049;-49
2022/01/21 07:41:51;;;;;;;11.30;3.45;;;;;;;2.24;99.89;103402.16;4878128;29;20052;-48
2022/01/21 07:44:19;;;;;;;13.52;3.78;;;;;;;2.27;100.00;103389.22;4877844;29;20045;-50
2022/01/21 07:46:47;;;;;;;14.48;4.32;;;;;;;2.27;99.70;103389.22;4877720;29;20057;-46
2022/01/21 07:49:16;;;;;;;12.13;3.95;;;;;;;2.25;100.00;103393.91;4878080;29;20443;-46
2022/01/21 07:51:44;;;;;;;13.18;3.55;;;;;;;2.26;100.00;103387.53;4877539;29;20139;-47
2022/01/21 07:54:13;;;;;;;12.63;3.60;;;;;;;2.27;100.00;103381.16;4877688;29;20049;-46
2022/01/21 07:56:41;;;;;;;12.25;3.80;;;;;;;2.30;100.00;103378.16;4879031;29;20053;-48
2022/01/21 07:59:11;;;;;;;9.95;3.70;;;;;;;2.31;100.00;103373.66;4880753;29;20104;-46
2022/01/21 08:01:39;;;;;;;9.38;3.33;;;;;;;2.32;100.00;103368.09;4880637;29;20104;-46
2022/01/21 08:04:07;;;;;;;9.63;3.55;;;;;;;2.31;99.95;103373.66;4880799;29;20128;-50
2022/01/21 08:06:35;;;;;;;9.55;3.42;;;;;;;2.32;100.00;103376.16;4880480;29;20508;-45
2022/01/21 08:09:04;;;;;;;10.13;3.50;;;;;;;2.32;99.80;103373.47;4880783;29;20053;-46
2022/01/21 08:11:31;;;;;;;11.57;3.72;;;;;;;2.32;99.97;103375.34;4880242;29;20048;-47
2022/01/21 08:13:59;;;;;;;10.68;3.25;;;;;;;2.34;100.00;103373.34;4879718;29;20056;-47
2022/01/21 08:16:27;;;;;;;11.00;3.40;;;;;;;2.34;100.00;103367.97;4880257;29;20052;-46
2022/01/21 08:18:54;;;;;;;11.77;3.47;;;;;;;2.35;100.00;103369.66;4863493;29;20048;-49
2022/01/21 08:21:22;;;;;;;12.45;3.28;;;;;;;2.34;100.00;103363.41;4878960;29;20045;-45
2022/01/21 08:23:52;;;;;;;10.30;3.45;;;;;;;2.36;100.00;103365.97;4879790;29;20040;-49
2022/01/21 08:26:23;;;;;;;12.35;3.75;;;;;;;2.35;100.00;103370.47;4879947;29;20052;-51
2022/01/21 08:28:52;;;;;;;14.32;3.75;;;;;;;2.34;100.00;103370.66;4879983;29;20037;-51
2022/01/21 08:31:20;;;;;;;10.38;3.58;;;;;;;2.34;100.00;103378.72;4879262;29;20037;-49
2022/01/21 08:33:50;;;;;;;15.88;3.75;;;;;;;2.36;100.00;103384.81;4879746;29;20098;-47
2022/01/21 08:36:24;;;;;;;12.70;3.75;;;;;;;2.37;100.00;103391.03;4879919;29;20116;-50
2022/01/21 08:38:53;;;;;;;10.02;3.38;;;;;;;2.39;100.00;103392.56;4879293;29;20511;-45
2022/01/21 08:41:21;;;;;;;12.88;4.00;;;;;;;2.43;100.00;103382.34;4879814;29;20047;-48
2022/01/21 08:43:49;;;;;;;13.52;4.10;;;;;;;2.45;100.00;103381.19;4879744;29;20037;-51
2022/01/21 08:46:17;;;;;;;13.98;4.13;;;;;;;2.47;100.00;103394.50;4879924;29;20051;-50
2022/01/21 08:48:45;;;;;;;13.43;4.10;;;;;;;2.47;100.00;103395.34;4879455;29;20500;-51
2022/01/21 08:51:19;;;;;;;12.93;3.83;;;;;;;2.46;100.00;103399.03;4876070;29;20041;-47
2022/01/21 08:53:46;;;;;;;12.75;4.20;;;;;;;2.45;100.00;103396.50;4872492;29;20046;-50
2022/01/21 08:56:16;;;;;;;11.65;3.75;;;;;;;2.45;100.00;103386.56;4877809;29;20167;-45
2022/01/21 08:58:45;;;;;;;11.68;3.85;;;;;;;2.44;100.00;103379.50;4879198;29;20044;-45
2022/01/21 09:01:14;;;;;;;11.10;3.30;;;;;;;2.44;100.00;103368.75;4878893;29;20052;-45
2022/01/21 09:03:43;;;;;;;14.73;4.32;;;;;;;2.44;100.00;103357.97;4877663;29;20052;-44
2022/01/21 09:06:12;;;;;;;12.18;4.18;;;;;;;2.44;100.00;103362.53;4879373;29;20057;-45
2022/01/21 09:08:41;;;;;;;12.32;3.60;;;;;;;2.43;100.00;103364.38;4879325;29;20508;-50
2022/01/21 09:11:09;;;;;;;12.65;4.18;;;;;;;2.42;100.00;103364.50;4878982;29;20042;-49
2022/01/21 09:13:40;;;;;;;11.32;3.70;;;;;;;2.44;100.00;103368.75;4878986;29;20048;-48
2022/01/21 09:16:09;;;;;;;12.80;3.75;;;;;;;2.51;100.00;103375.22;4879398;29;20048;-44
2022/01/21 09:18:49;;;;;;;11.57;3.45;;;;;;;2.53;100.00;103367.84;4879096;29;20334;-50
2022/01/21 09:21:35;;;;;;;12.45;3.72;;;;;;;2.55;100.00;103371.22;4878791;29;20061;-49
2022/01/21 09:24:04;;;;;;;11.93;3.78;;;;;;;2.58;100.00;103378.16;4879207;29;20060;-46
2022/01/21 09:26:32;;;;;;;17.27;4.30;;;;;;;2.61;100.00;103374.31;4878075;29;20047;-45
2022/01/21 09:29:03;;;;;;;12.93;3.25;;;;;;;2.64;100.00;103374.00;4878758;29;20408;-46
2022/01/21 09:31:31;;;;;;;10.60;3.50;;;;;;;2.67;100.00;103379.94;4872626;29;20088;-51
2022/01/21 09:34:19;;;;;;;12.48;3.50;;;;;;;2.70;100.00;103378.78;4867492;29;20088;-50
2022/01/21 09:36:47;;;;;;;12.27;4.05;;;;;;;2.72;100.00;103384.88;4878869;29;20076;-48
2022/01/21 09:39:15;;;;;;;15.65;3.90;;;;;;;2.72;100.00;103384.88;4878931;29;20076;-49
2022/01/21 09:41:43;;;;;;;12.63;3.55;;;;;;;2.73;100.00;103382.00;4879296;29;20045;-47
2022/01/21 09:44:12;;;;;;;16.77;3.83;;;;;;;2.75;100.00;103388.09;4878684;29;20048;-47
2022/01/21 09:46:45;;;;;;;13.00;3.38;;;;;;;2.77;100.00;103383.41;4860652;29;20073;-50
2022/01/21 09:51:55;;;;;;;13.50;4.00;;;;;;;2.83;100.00;103381.09;4878518;29;20053;-47
2022/01/21 09:54:25;;;;;;;11.40;3.83;;;;;;;2.85;100.00;103393.41;4878226;29;20045;-48
2022/01/21 09:56:55;;;;;;;11.13;3.40;;;;;;;2.88;100.00;103395.78;4879254;29;20075;-46
2022/01/21 09:59:26;;;;;;;13.23;3.95;;;;;;;2.94;100.00;103407.81;4878327;29;20495;-51
2022/01/21 10:01:57;;;;;;;8.65;3.35;;;;;;;3.03;100.00;103400.63;4879123;29;20052;-50
2022/01/21 10:04:36;;;;;;;13.23;4.00;;;;;;;3.08;100.00;103409.97;4878127;29;20579;-49
2022/01/21 10:07:05;;;;;;;10.05;3.15;;;;;;;3.14;100.00;103416.56;4878549;29;20445;-49
2022/01/21 10:09:32;;;;;;;11.90;3.78;;;;;;;3.19;100.00;103422.34;4877726;29;20518;-48
2022/01/21 10:12:01;;;;;;;11.48;3.80;;;;;;;3.21;100.00;103425.72;4878674;29;20045;-48
2022/01/21 10:14:30;;;;;;;11.70;3.35;;;;;;;3.23;100.00;103423.72;4878364;29;20424;-50
2022/01/21 10:16:59;;;;;;;10.13;3.20;;;;;;;3.26;100.00;103427.94;4878631;29;20047;-52
2022/01/21 10:19:29;;;;;;;10.48;3.33;;;;;;;3.30;100.00;103429.34;4878332;29;20527;-50
2022/01/21 10:22:02;;;;;;;9.65;3.05;;;;;;;3.31;100.00;103429.16;4878865;29;20041;-52
2022/01/21 10:24:32;;;;;;;8.73;3.05;;;;;;;3.36;100.00;103434.09;4878401;29;20037;-49
2022/01/21 10:27:00;;;;;;;13.07;3.55;;;;;;;3.41;100.00;103427.22;4861923;29;20045;-49
2022/01/21 10:29:37;;;;;;;16.77;4.47;;;;;;;3.47;100.00;103420.38;4877657;29;20041;-49
2022/01/21 10:32:06;;;;;;;11.73;3.92;;;;;;;3.53;100.00;103419.75;4878681;29;20416;-46
2022/01/21 10:34:40;;;;;;;11.75;4.43;;;;;;;3.59;100.00;103426.38;4878191;29;20065;-50
2022/01/21 10:37:29;;;;;;;13.35;3.88;;;;;;;3.66;100.00;103430.13;4878470;29;20510;-48
2022/01/21 10:40:08;;;;;;;11.75;3.80;;;;;;;3.73;100.00;103436.59;4881568;29;20045;-47
2022/01/21 10:42:37;;;;;;;14.38;4.20;;;;;;;3.74;100.00;103434.72;4865585;29;20104;-46
2022/01/21 10:45:07;;;;;;;15.48;4.25;;;;;;;3.74;100.00;103430.19;4881744;29;20484;-46
2022/01/21 10:47:40;;;;;;;15.82;4.93;;;;;;;3.75;100.00;103426.50;4864834;29;20515;-48
2022/01/21 10:50:12;;;;;;;17.92;4.40;;;;;;;3.77;100.00;103418.22;4881729;29;20048;-49
2022/01/21 10:52:51;;;;;;;16.70;4.45;;;;;;;3.78;100.00;103425.31;4880606;29;20070;-46
2022/01/21 10:55:46;;;;;;;13.52;3.47;;;;;;;3.78;100.00;103422.63;4881531;29;20049;-48
2022/01/21 10:58:20;;;;;;;13.75;3.88;;;;;;;3.79;100.00;103422.47;4860967;29;20061;-52
2022/01/21 11:01:02;;;;;;;16.70;4.53;;;;;;;3.79;100.00;103419.75;4881382;29;20523;-50
2022/01/21 11:03:31;;;;;;;12.82;3.88;;;;;;;3.82;100.00;103405.97;4864559;29;20049;-46
2022/01/21 11:06:09;;;;;;;13.18;4.00;;;;;;;3.84;100.00;103401.25;4880335;29;20041;-51
2022/01/21 11:08:37;;;;;;;17.95;4.60;;;;;;;3.85;100.00;103396.72;4881331;29;20504;-47
2022/01/21 11:11:05;;;;;;;14.73;3.92;;;;;;;3.87;100.00;103396.53;4881479;29;20056;-47
2022/01/21 11:13:36;;;;;;;11.73;3.55;;;;;;;3.93;100.00;103394.06;4880589;29;20508;-48
2022/01/21 11:16:16;;;;;;;16.70;4.40;;;;;;;3.98;100.00;103385.50;4865013;29;20085;-48
2022/01/21 11:19:12;;;;;;;17.00;4.50;;;;;;;4.01;100.00;103385.16;4868173;29;20077;-48
2022/01/21 11:21:43;;;;;;;19.55;4.30;;;;;;;4.00;100.00;103373.53;4881416;29;20049;-45
2022/01/21 11:24:11;;;;;;;12.73;3.75;;;;;;;4.00;100.00;103378.94;4880340;29;20052;-49
2022/01/21 11:26:39;;;;;;;19.83;4.85;;;;;;;4.01;100.00;103379.75;4880636;29;20524;-52
2022/01/21 11:29:08;;;;;;;15.85;4.28;;;;;;;3.99;100.00;103370.97;4880788;29;20385;-48
2022/01/21 11:31:35;;;;;;;15.50;3.80;;;;;;;4.00;100.00;103368.13;4880799;29;20049;-49
2022/01/21 11:34:12;;;;;;;20.20;4.30;;;;;;;4.01;100.00;103375.22;4880709;29;20089;-45
2022/01/21 11:36:39;;;;;;;16.80;4.45;;;;;;;4.02;100.00;103376.91;4881001;29;20414;-45
2022/01/21 11:39:07;;;;;;;14.52;4.18;;;;;;;4.04;100.00;103380.31;4880702;29;20121;-49
2022/01/21 11:41:35;;;;;;;16.85;4.40;;;;;;;4.05;100.00;103375.75;4864243;29;20420;-45
2022/01/21 11:44:05;;;;;;;14.75;4.13;;;;;;;4.07;100.00;103379.13;4880581;29;20041;-48
2022/01/21 11:49:09;;;;;;;16.23;4.00;;;;;;;4.09;100.00;103360.94;4863930;29;20047;-53
2022/01/21 11:51:41;;;;;;;15.77;4.30;;;;;;;4.12;100.00;103365.16;4880383;29;20418;-54
2022/01/21 11:54:10;;;;;;;17.08;4.10;;;;;;;4.13;100.00;103367.69;4880667;29;20048;-50
2022/01/21 11:56:46;;;;;;;14.93;4.43;;;;;;;4.14;100.00;103366.69;4336502;29;10002723;-54
2022/01/21 11:59:26;;;;;;;13.75;3.97;;;;;;;4.16;100.00;103361.97;4877314;29;20072;-51
2022/01/21 12:01:54;;;;;;;17.98;4.47;;;;;;;4.17;100.00;103357.41;4877040;29;20053;-49
2022/01/21 12:04:31;;;;;;;15.48;4.40;;;;;;;4.17;100.00;103346.63;4877422;29;20052;-47
2022/01/21 12:06:59;;;;;;;14.80;3.92;;;;;;;4.19;100.00;103350.00;4876687;29;20112;-49
2022/01/21 12:10:04;;;;;;;16.77;4.15;;;;;;;4.18;100.00;103343.75;4876948;29;20030;-51
2022/01/21 12:19:05;;;;;;;18.90;4.60;;;;;;;4.21;100.00;103342.56;4800794;29;20526;-48
2022/01/21 12:21:03;;;;;;;15.27;3.92;;;;;;;4.24;100.00;103332.31;4801029;29;20070;-53
2022/01/21 12:23:42;;;;;;;16.52;4.43;;;;;;;4.27;100.00;103331.13;4801226;29;20051;-53
2022/01/21 12:26:21;;;;;;;18.05;4.72;;;;;;;4.30;100.00;103336.19;4800809;29;20430;-49
2022/01/21 12:28:57;;;;;;;15.77;4.20;;;;;;;4.34;100.00;103342.13;4798659;29;20051;-50
2022/01/21 12:31:31;;;;;;;17.70;4.25;;;;;;;4.36;100.00;103349.06;4800726;29;20075;-50
2022/01/21 12:34:17;;;;;;;17.13;4.93;;;;;;;4.39;100.00;103355.97;4800595;29;20518;-51
2022/01/21 12:36:55;;;;;;;14.02;3.75;;;;;;;4.42;100.00;103348.38;4800891;29;20095;-49
2022/01/21 12:39:48;;;;;;;14.35;4.43;;;;;;;4.46;100.00;103336.25;4800221;29;20046;-51